Forside
METAR-TAF:

METAR-TAF

Lufthavne :

Gogebic-Iron County Airport

Ironwood, Michigan, USA

Breddekreds: 46-32N, længdekreds: 090-08W, højde: 375 m

Aktuelle vejr

Denne rapport blev lavet for 27 minutter siden, kl. 12:56 UTC
Vind stille
Temperatur -6°C
Fugtighed 93%
Tryk 1023 hPa
Sigt: 16.1 km
skyfri

METAR: KIWD 311256Z AUTO 00000KT 10SM CLR M06/M07 A3022 RMK AO2 SLP253 T10611072 FZRANO

Tid: 09:23 (13:23 UTC)

Vejrudsigter

Denne rapport blev lavet for 2 timer og 3 minutter siden, kl. 11:20 UTC
Foreløbig gælder fra 31 på 12 UTC til 01 på 12 UTC
Vind kt fra nord
Sigt: 10 km
Brudte skyer i en højde af 25000 ft
Fra 31 på 1500 UTC
Vind 5 kt fra nordøst
Sigt: 10 km
Brudte skyer i en højde af 1600 ft
Fra 31 på 2000 UTC
Vind 7 kt fra nordnordøst
Sigt: 10 km
Brudte skyer i en højde af 1600 ft
Fra 01 på 0200 UTC
Vind 4 kt fra varierende retninger
Sigt: 10 km
Brudte skyer i en højde af 1200 ft

TAF: KIWD 311120Z 3112/0112 00000KT P6SM BKN250 FM311500 04005KT P6SM BKN016 FM312000 02007KT P6SM BKN016 FM010200 VRB04KT P6SM BKN012

Vejrobservationer og prognoser fra mere end 4000 lufthavne (METAR og TAF).

De gule og røde prikker repræsenterer de meteorologiske stationer.

Flyt musen over at se navnet på stationen.

Så klik over at se vejr observationer og prognoser.

At skifte det kort: Klik på de grønne knapper med et sort kors for at zoome ind; på den grønne knap med en bindestreg for at zoome ud; eller på de grønne pile for tilstødende kort.


METAR-TAF: